sensor_id;sensor_type;location;lat;lon;timestamp;P1;durP1;ratioP1;P2;durP2;ratioP2
25129;SDS011;13308;50.860;13.664;2023-02-12T07:22:21;6.10;;;4.32;;
25129;SDS011;13308;50.860;13.664;2023-02-12T07:24:47;9.50;;;5.20;;
25129;SDS011;13308;50.860;13.664;2023-02-12T07:27:12;8.23;;;4.85;;
25129;SDS011;13308;50.860;13.664;2023-02-12T07:29:38;12.32;;;5.18;;
25129;SDS011;13308;50.860;13.664;2023-02-12T07:32:03;11.15;;;5.90;;
25129;SDS011;13308;50.860;13.664;2023-02-12T07:34:29;9.27;;;6.03;;
25129;SDS011;13308;50.860;13.664;2023-02-12T07:36:54;10.07;;;6.30;;
25129;SDS011;13308;50.860;13.664;2023-02-12T07:39:20;10.73;;;6.97;;
25129;SDS011;13308;50.860;13.664;2023-02-12T07:41:45;9.70;;;5.88;;
25129;SDS011;13308;50.860;13.664;2023-02-12T07:44:11;9.73;;;6.07;;
25129;SDS011;13308;50.860;13.664;2023-02-12T07:46:40;10.98;;;7.03;;
25129;SDS011;13308;50.860;13.664;2023-02-12T07:49:09;11.43;;;6.03;;
25129;SDS011;13308;50.860;13.664;2023-02-12T07:51:45;11.90;;;6.97;;
25129;SDS011;13308;50.860;13.664;2023-02-12T07:54:12;13.63;;;7.00;;
25129;SDS011;13308;50.860;13.664;2023-02-12T07:56:38;13.15;;;6.63;;
25129;SDS011;13308;50.860;13.664;2023-02-12T07:59:15;9.38;;;6.18;;
25129;SDS011;13308;50.860;13.664;2023-02-12T08:01:42;16.48;;;6.72;;
25129;SDS011;13308;50.860;13.664;2023-02-12T08:04:12;10.55;;;5.60;;
25129;SDS011;13308;50.860;13.664;2023-02-12T08:06:40;12.60;;;7.00;;
25129;SDS011;13308;50.860;13.664;2023-02-12T08:09:08;11.52;;;6.35;;
25129;SDS011;13308;50.860;13.664;2023-02-12T08:11:35;10.75;;;6.88;;
25129;SDS011;13308;50.860;13.664;2023-02-12T08:14:02;9.73;;;6.22;;
25129;SDS011;13308;50.860;13.664;2023-02-12T08:16:28;14.32;;;6.78;;
25129;SDS011;13308;50.860;13.664;2023-02-12T08:18:54;11.68;;;6.60;;
25129;SDS011;13308;50.860;13.664;2023-02-12T08:21:21;12.73;;;6.53;;
25129;SDS011;13308;50.860;13.664;2023-02-12T08:23:49;11.50;;;6.70;;
25129;SDS011;13308;50.860;13.664;2023-02-12T08:26:16;11.30;;;6.53;;
25129;SDS011;13308;50.860;13.664;2023-02-12T08:29:00;10.73;;;6.05;;
25129;SDS011;13308;50.860;13.664;2023-02-12T08:31:32;14.18;;;7.28;;
25129;SDS011;13308;50.860;13.664;2023-02-12T08:33:59;14.05;;;8.20;;
25129;SDS011;13308;50.860;13.664;2023-02-12T08:36:25;11.77;;;7.20;;
25129;SDS011;13308;50.860;13.664;2023-02-12T08:38:52;14.05;;;7.10;;
25129;SDS011;13308;50.860;13.664;2023-02-12T08:41:19;14.23;;;6.93;;
25129;SDS011;13308;50.860;13.664;2023-02-12T08:43:47;12.02;;;6.90;;
25129;SDS011;13308;50.860;13.664;2023-02-12T08:46:15;14.02;;;6.75;;
25129;SDS011;13308;50.860;13.664;2023-02-12T08:48:41;13.05;;;7.43;;
25129;SDS011;13308;50.860;13.664;2023-02-12T08:51:09;13.25;;;7.00;;
25129;SDS011;13308;50.860;13.664;2023-02-12T08:53:40;13.65;;;6.93;;
25129;SDS011;13308;50.860;13.664;2023-02-12T08:56:07;10.77;;;6.95;;
25129;SDS011;13308;50.860;13.664;2023-02-12T08:58:33;15.40;;;7.75;;
25129;SDS011;13308;50.860;13.664;2023-02-12T09:00:59;13.13;;;7.57;;
25129;SDS011;13308;50.860;13.664;2023-02-12T09:03:25;13.38;;;7.68;;
25129;SDS011;13308;50.860;13.664;2023-02-12T09:05:50;11.10;;;6.70;;
25129;SDS011;13308;50.860;13.664;2023-02-12T09:08:16;12.82;;;7.40;;
25129;SDS011;13308;50.860;13.664;2023-02-12T09:10:42;10.52;;;6.70;;
25129;SDS011;13308;50.860;13.664;2023-02-12T09:13:08;12.95;;;7.68;;
25129;SDS011;13308;50.860;13.664;2023-02-12T09:15:35;11.10;;;6.88;;
25129;SDS011;13308;50.860;13.664;2023-02-12T09:18:12;9.88;;;6.38;;
25129;SDS011;13308;50.860;13.664;2023-02-12T09:20:38;13.73;;;7.25;;
25129;SDS011;13308;50.860;13.664;2023-02-12T09:23:05;16.88;;;8.20;;
25129;SDS011;13308;50.860;13.664;2023-02-12T09:25:31;13.15;;;7.53;;
25129;SDS011;13308;50.860;13.664;2023-02-12T09:28:00;13.55;;;6.13;;
25129;SDS011;13308;50.860;13.664;2023-02-12T09:30:26;14.02;;;7.65;;
25129;SDS011;13308;50.860;13.664;2023-02-12T09:32:51;16.73;;;8.00;;
25129;SDS011;13308;50.860;13.664;2023-02-12T09:35:17;17.95;;;9.77;;
25129;SDS011;13308;50.860;13.664;2023-02-12T09:37:43;19.98;;;10.10;;
25129;SDS011;13308;50.860;13.664;2023-02-12T09:40:11;20.17;;;9.38;;
25129;SDS011;13308;50.860;13.664;2023-02-12T09:42:51;17.02;;;8.20;;
25129;SDS011;13308;50.860;13.664;2023-02-12T09:45:22;15.35;;;7.95;;
25129;SDS011;13308;50.860;13.664;2023-02-12T09:48:03;15.65;;;8.68;;
25129;SDS011;13308;50.860;13.664;2023-02-12T09:50:57;11.13;;;6.00;;
25129;SDS011;13308;50.860;13.664;2023-02-12T09:53:28;7.85;;;5.13;;
25129;SDS011;13308;50.860;13.664;2023-02-12T09:55:55;8.63;;;6.28;;
25129;SDS011;13308;50.860;13.664;2023-02-12T10:01:21;8.90;;;3.85;;
25129;SDS011;13308;50.860;13.664;2023-02-12T10:03:47;4.80;;;3.55;;
25129;SDS011;13308;50.860;13.664;2023-02-12T10:06:18;7.22;;;4.13;;
25129;SDS011;13308;50.860;13.664;2023-02-12T10:11:49;5.50;;;3.15;;
25129;SDS011;13308;50.860;13.664;2023-02-12T10:17:36;4.43;;;2.90;;
25129;SDS011;13308;50.860;13.664;2023-02-12T10:28:12;6.40;;;4.15;;
25129;SDS011;13308;50.860;13.664;2023-02-12T10:30:48;5.78;;;3.65;;
25129;SDS011;13308;50.860;13.664;2023-02-12T10:33:20;5.03;;;3.55;;
25129;SDS011;13308;50.860;13.664;2023-02-12T10:36:26;4.50;;;3.13;;
25129;SDS011;13308;50.860;13.664;2023-02-12T10:38:53;11.10;;;6.93;;
25129;SDS011;13308;50.860;13.664;2023-02-12T10:41:25;13.52;;;7.75;;
25129;SDS011;13308;50.860;13.664;2023-02-12T10:43:54;16.08;;;9.38;;
25129;SDS011;13308;50.860;13.664;2023-02-12T10:46:19;7.00;;;4.45;;
25129;SDS011;13308;50.860;13.664;2023-02-12T10:48:47;5.10;;;3.63;;
25129;SDS011;13308;50.860;13.664;2023-02-12T10:51:26;5.65;;;3.42;;
25129;SDS011;13308;50.860;13.664;2023-02-12T10:53:53;7.68;;;3.85;;
25129;SDS011;13308;50.860;13.664;2023-02-12T10:56:19;5.43;;;3.80;;
25129;SDS011;13308;50.860;13.664;2023-02-12T11:01:22;4.57;;;3.10;;
25129;SDS011;13308;50.860;13.664;2023-02-12T11:03:51;6.45;;;3.55;;
25129;SDS011;13308;50.860;13.664;2023-02-12T11:06:19;7.13;;;3.30;;
25129;SDS011;13308;50.860;13.664;2023-02-12T11:08:56;8.32;;;4.07;;
25129;SDS011;13308;50.860;13.664;2023-02-12T11:11:24;4.38;;;3.22;;
25129;SDS011;13308;50.860;13.664;2023-02-12T11:13:53;5.55;;;3.42;;
25129;SDS011;13308;50.860;13.664;2023-02-12T11:16:31;5.57;;;3.10;;
25129;SDS011;13308;50.860;13.664;2023-02-12T11:19:02;6.25;;;3.33;;
25129;SDS011;13308;50.860;13.664;2023-02-12T11:21:30;5.95;;;3.35;;
25129;SDS011;13308;50.860;13.664;2023-02-12T11:23:55;5.30;;;3.53;;
25129;SDS011;13308;50.860;13.664;2023-02-12T11:26:32;5.45;;;3.33;;
25129;SDS011;13308;50.860;13.664;2023-02-12T11:28:58;4.55;;;2.95;;
25129;SDS011;13308;50.860;13.664;2023-02-12T11:31:26;5.30;;;2.97;;
25129;SDS011;13308;50.860;13.664;2023-02-12T11:36:38;6.50;;;2.70;;
25129;SDS011;13308;50.860;13.664;2023-02-12T11:42:19;10.55;;;3.63;;
25129;SDS011;13308;50.860;13.664;2023-02-12T11:47:27;7.25;;;3.00;;
25129;SDS011;13308;50.860;13.664;2023-02-12T11:52:27;9.32;;;2.72;;
25129;SDS011;13308;50.860;13.664;2023-02-12T11:54:56;5.07;;;2.72;;
25129;SDS011;13308;50.860;13.664;2023-02-12T11:57:34;8.13;;;2.95;;
25129;SDS011;13308;50.860;13.664;2023-02-12T12:00:12;5.10;;;3.05;;
25129;SDS011;13308;50.860;13.664;2023-02-12T12:02:54;8.80;;;2.72;;
25129;SDS011;13308;50.860;13.664;2023-02-12T12:05:28;5.82;;;3.50;;
25129;SDS011;13308;50.860;13.664;2023-02-12T12:07:59;8.05;;;3.60;;
25129;SDS011;13308;50.860;13.664;2023-02-12T12:10:38;7.03;;;3.38;;
25129;SDS011;13308;50.860;13.664;2023-02-12T12:13:12;4.97;;;2.63;;
25129;SDS011;13308;50.860;13.664;2023-02-12T12:15:42;5.55;;;2.58;;
25129;SDS011;13308;50.860;13.664;2023-02-12T12:18:46;5.50;;;2.75;;
25129;SDS011;13308;50.860;13.664;2023-02-12T12:21:41;9.15;;;3.15;;
25129;SDS011;13308;50.860;13.664;2023-02-12T12:24:46;6.63;;;3.05;;
25129;SDS011;13308;50.860;13.664;2023-02-12T12:27:13;5.47;;;3.00;;
25129;SDS011;13308;50.860;13.664;2023-02-12T12:30:03;11.90;;;2.90;;
25129;SDS011;13308;50.860;13.664;2023-02-12T12:32:35;9.00;;;3.35;;
25129;SDS011;13308;50.860;13.664;2023-02-12T12:35:03;6.85;;;3.50;;
25129;SDS011;13308;50.860;13.664;2023-02-12T12:37:39;8.18;;;3.90;;
25129;SDS011;13308;50.860;13.664;2023-02-12T12:42:54;11.32;;;4.90;;
25129;SDS011;13308;50.860;13.664;2023-02-12T12:53:59;8.52;;;4.40;;
25129;SDS011;13308;50.860;13.664;2023-02-12T12:56:39;7.47;;;4.05;;
25129;SDS011;13308;50.860;13.664;2023-02-12T13:02:16;7.00;;;4.20;;
25129;SDS011;13308;50.860;13.664;2023-02-12T13:05:12;8.45;;;4.85;;
25129;SDS011;13308;50.860;13.664;2023-02-12T13:13:04;12.68;;;5.90;;
25129;SDS011;13308;50.860;13.664;2023-02-12T13:15:51;9.88;;;5.50;;
25129;SDS011;13308;50.860;13.664;2023-02-12T13:18:30;10.60;;;5.65;;
25129;SDS011;13308;50.860;13.664;2023-02-12T13:21:17;10.85;;;6.00;;
25129;SDS011;13308;50.860;13.664;2023-02-12T13:23:55;10.80;;;6.65;;
25129;SDS011;13308;50.860;13.664;2023-02-12T13:26:26;12.18;;;6.80;;
25129;SDS011;13308;50.860;13.664;2023-02-12T13:29:11;13.50;;;7.22;;
25129;SDS011;13308;50.860;13.664;2023-02-12T13:31:44;12.20;;;6.43;;
25129;SDS011;13308;50.860;13.664;2023-02-12T13:34:13;14.48;;;6.60;;
25129;SDS011;13308;50.860;13.664;2023-02-12T13:36:41;9.88;;;6.18;;
25129;SDS011;13308;50.860;13.664;2023-02-12T13:39:29;10.38;;;5.70;;
25129;SDS011;13308;50.860;13.664;2023-02-12T13:52:54;9.40;;;5.57;;
25129;SDS011;13308;50.860;13.664;2023-02-12T14:03:24;4.57;;;3.53;;
25129;SDS011;13308;50.860;13.664;2023-02-12T14:06:06;6.32;;;3.42;;
25129;SDS011;13308;50.860;13.664;2023-02-12T14:08:40;4.03;;;3.20;;
25129;SDS011;13308;50.860;13.664;2023-02-12T14:11:12;6.63;;;3.10;;
25129;SDS011;13308;50.860;13.664;2023-02-12T14:13:45;4.45;;;3.00;;
25129;SDS011;13308;50.860;13.664;2023-02-12T14:18:52;4.20;;;2.95;;
25129;SDS011;13308;50.860;13.664;2023-02-12T14:21:56;5.35;;;3.35;;
25129;SDS011;13308;50.860;13.664;2023-02-12T14:27:21;4.68;;;3.30;;
25129;SDS011;13308;50.860;13.664;2023-02-12T14:32:53;4.75;;;2.80;;
25129;SDS011;13308;50.860;13.664;2023-02-12T14:37:50;5.18;;;3.00;;
25129;SDS011;13308;50.860;13.664;2023-02-12T14:42:57;7.65;;;4.13;;
25129;SDS011;13308;50.860;13.664;2023-02-12T14:45:32;5.97;;;4.20;;
25129;SDS011;13308;50.860;13.664;2023-02-12T14:47:59;5.00;;;3.85;;
25129;SDS011;13308;50.860;13.664;2023-02-12T14:50:30;4.90;;;3.85;;
25129;SDS011;13308;50.860;13.664;2023-02-12T14:53:07;4.85;;;3.20;;
25129;SDS011;13308;50.860;13.664;2023-02-12T14:55:46;6.40;;;3.92;;
25129;SDS011;13308;50.860;13.664;2023-02-12T14:58:15;5.30;;;3.80;;
25129;SDS011;13308;50.860;13.664;2023-02-12T15:00:44;6.68;;;3.65;;
25129;SDS011;13308;50.860;13.664;2023-02-12T15:05:38;5.20;;;3.47;;
25129;SDS011;13308;50.860;13.664;2023-02-12T15:11:01;5.75;;;3.83;;
25129;SDS011;13308;50.860;13.664;2023-02-12T15:13:30;8.63;;;5.13;;
25129;SDS011;13308;50.860;13.664;2023-02-12T15:16:11;13.85;;;7.10;;
25129;SDS011;13308;50.860;13.664;2023-02-12T15:24:06;5.75;;;3.90;;
25129;SDS011;13308;50.860;13.664;2023-02-12T15:26:33;4.80;;;3.67;;
25129;SDS011;13308;50.860;13.664;2023-02-12T15:29:03;4.68;;;4.20;;
25129;SDS011;13308;50.860;13.664;2023-02-12T15:31:29;5.43;;;4.05;;
25129;SDS011;13308;50.860;13.664;2023-02-12T15:33:57;4.47;;;3.55;;
25129;SDS011;13308;50.860;13.664;2023-02-12T15:36:24;6.07;;;5.28;;
25129;SDS011;13308;50.860;13.664;2023-02-12T15:38:54;5.13;;;3.70;;
25129;SDS011;13308;50.860;13.664;2023-02-12T15:43:57;4.70;;;4.18;;
25129;SDS011;13308;50.860;13.664;2023-02-12T15:46:24;7.22;;;5.32;;
25129;SDS011;13308;50.860;13.664;2023-02-12T15:48:49;5.65;;;4.72;;
25129;SDS011;13308;50.860;13.664;2023-02-12T15:54:12;23.73;;;9.93;;
25129;SDS011;13308;50.860;13.664;2023-02-12T15:56:42;22.98;;;10.80;;
25129;SDS011;13308;50.860;13.664;2023-02-12T15:59:14;14.98;;;8.02;;
25129;SDS011;13308;50.860;13.664;2023-02-12T16:01:54;17.77;;;10.43;;
25129;SDS011;13308;50.860;13.664;2023-02-12T16:04:21;8.77;;;6.28;;
25129;SDS011;13308;50.860;13.664;2023-02-12T16:06:47;15.80;;;9.57;;
25129;SDS011;13308;50.860;13.664;2023-02-12T16:09:19;10.80;;;8.55;;
25129;SDS011;13308;50.860;13.664;2023-02-12T16:11:52;9.88;;;6.90;;
25129;SDS011;13308;50.860;13.664;2023-02-12T16:14:24;9.32;;;6.53;;
25129;SDS011;13308;50.860;13.664;2023-02-12T16:16:52;7.68;;;6.00;;
25129;SDS011;13308;50.860;13.664;2023-02-12T16:19:22;11.25;;;7.47;;
25129;SDS011;13308;50.860;13.664;2023-02-12T16:21:58;15.38;;;9.40;;
25129;SDS011;13308;50.860;13.664;2023-02-12T16:24:32;17.70;;;9.95;;
25129;SDS011;13308;50.860;13.664;2023-02-12T16:27:00;17.35;;;10.25;;
25129;SDS011;13308;50.860;13.664;2023-02-12T16:29:44;13.98;;;9.07;;
25129;SDS011;13308;50.860;13.664;2023-02-12T16:42:36;8.70;;;6.10;;
25129;SDS011;13308;50.860;13.664;2023-02-12T16:45:31;9.13;;;6.32;;
25129;SDS011;13308;50.860;13.664;2023-02-12T16:47:59;13.50;;;7.07;;
25129;SDS011;13308;50.860;13.664;2023-02-12T16:50:30;9.23;;;6.40;;
25129;SDS011;13308;50.860;13.664;2023-02-12T16:52:58;9.43;;;6.65;;
25129;SDS011;13308;50.860;13.664;2023-02-12T16:55:25;9.93;;;6.50;;
25129;SDS011;13308;50.860;13.664;2023-02-12T16:57:50;14.50;;;8.52;;
25129;SDS011;13308;50.860;13.664;2023-02-12T17:00:16;13.40;;;8.57;;
25129;SDS011;13308;50.860;13.664;2023-02-12T17:02:42;16.38;;;9.05;;
25129;SDS011;13308;50.860;13.664;2023-02-12T17:05:07;19.67;;;9.45;;
25129;SDS011;13308;50.860;13.664;2023-02-12T17:07:34;12.45;;;8.25;;
25129;SDS011;13308;50.860;13.664;2023-02-12T17:10:00;27.05;;;13.65;;
25129;SDS011;13308;50.860;13.664;2023-02-12T17:12:26;34.72;;;16.17;;
25129;SDS011;13308;50.860;13.664;2023-02-12T17:14:51;64.20;;;22.95;;
25129;SDS011;13308;50.860;13.664;2023-02-12T17:17:17;44.00;;;16.52;;
25129;SDS011;13308;50.860;13.664;2023-02-12T17:19:42;39.65;;;17.45;;
25129;SDS011;13308;50.860;13.664;2023-02-12T17:22:14;50.38;;;20.75;;
25129;SDS011;13308;50.860;13.664;2023-02-12T17:24:46;29.83;;;14.18;;
25129;SDS011;13308;50.860;13.664;2023-02-12T17:27:15;13.30;;;9.07;;
25129;SDS011;13308;50.860;13.664;2023-02-12T17:29:43;19.10;;;9.80;;
25129;SDS011;13308;50.860;13.664;2023-02-12T17:32:09;15.80;;;9.75;;
25129;SDS011;13308;50.860;13.664;2023-02-12T17:34:35;15.52;;;9.30;;
25129;SDS011;13308;50.860;13.664;2023-02-12T17:37:04;13.57;;;9.68;;
25129;SDS011;13308;50.860;13.664;2023-02-12T17:39:30;18.50;;;9.82;;
25129;SDS011;13308;50.860;13.664;2023-02-12T17:41:55;29.15;;;19.15;;
25129;SDS011;13308;50.860;13.664;2023-02-12T17:44:24;17.10;;;11.43;;
25129;SDS011;13308;50.860;13.664;2023-02-12T17:46:49;20.00;;;13.05;;
25129;SDS011;13308;50.860;13.664;2023-02-12T17:49:15;11.52;;;8.13;;
25129;SDS011;13308;50.860;13.664;2023-02-12T17:51:40;16.73;;;10.75;;
25129;SDS011;13308;50.860;13.664;2023-02-12T17:54:06;13.40;;;9.20;;
25129;SDS011;13308;50.860;13.664;2023-02-12T17:56:32;20.17;;;11.98;;
25129;SDS011;13308;50.860;13.664;2023-02-12T17:58:57;14.43;;;9.32;;
25129;SDS011;13308;50.860;13.664;2023-02-12T18:01:22;13.20;;;9.88;;
25129;SDS011;13308;50.860;13.664;2023-02-12T18:03:48;13.40;;;9.57;;
25129;SDS011;13308;50.860;13.664;2023-02-12T18:06:24;13.23;;;9.43;;
25129;SDS011;13308;50.860;13.664;2023-02-12T18:08:52;10.88;;;7.85;;
25129;SDS011;13308;50.860;13.664;2023-02-12T18:11:17;13.52;;;8.10;;
25129;SDS011;13308;50.860;13.664;2023-02-12T18:13:43;39.30;;;21.90;;
25129;SDS011;13308;50.860;13.664;2023-02-12T18:16:09;23.42;;;12.82;;
25129;SDS011;13308;50.860;13.664;2023-02-12T18:18:35;110.55;;;52.95;;
25129;SDS011;13308;50.860;13.664;2023-02-12T18:21:06;42.97;;;22.27;;
25129;SDS011;13308;50.860;13.664;2023-02-12T18:23:33;96.85;;;48.30;;
25129;SDS011;13308;50.860;13.664;2023-02-12T18:25:59;39.55;;;22.42;;
25129;SDS011;13308;50.860;13.664;2023-02-12T18:28:24;37.13;;;22.70;;
25129;SDS011;13308;50.860;13.664;2023-02-12T18:30:56;23.52;;;14.02;;
25129;SDS011;13308;50.860;13.664;2023-02-12T18:33:22;22.23;;;15.82;;
25129;SDS011;13308;50.860;13.664;2023-02-12T18:35:58;24.42;;;18.05;;
25129;SDS011;13308;50.860;13.664;2023-02-12T18:38:26;19.15;;;14.52;;
25129;SDS011;13308;50.860;13.664;2023-02-12T18:40:52;9.63;;;7.20;;
25129;SDS011;13308;50.860;13.664;2023-02-12T18:43:17;9.88;;;6.95;;
25129;SDS011;13308;50.860;13.664;2023-02-12T18:45:42;26.52;;;15.20;;
25129;SDS011;13308;50.860;13.664;2023-02-12T18:48:08;24.60;;;16.55;;
25129;SDS011;13308;50.860;13.664;2023-02-12T18:50:34;18.75;;;12.98;;
25129;SDS011;13308;50.860;13.664;2023-02-12T18:53:00;28.90;;;18.42;;
25129;SDS011;13308;50.860;13.664;2023-02-12T18:55:25;23.33;;;14.50;;
25129;SDS011;13308;50.860;13.664;2023-02-12T18:57:51;14.45;;;10.00;;
25129;SDS011;13308;50.860;13.664;2023-02-12T19:00:17;26.02;;;14.80;;
25129;SDS011;13308;50.860;13.664;2023-02-12T19:02:43;24.25;;;12.57;;
25129;SDS011;13308;50.860;13.664;2023-02-12T19:05:08;22.77;;;12.73;;
25129;SDS011;13308;50.860;13.664;2023-02-12T19:07:34;29.85;;;16.40;;
25129;SDS011;13308;50.860;13.664;2023-02-12T19:09:59;20.70;;;11.27;;
25129;SDS011;13308;50.860;13.664;2023-02-12T19:12:24;21.95;;;11.90;;
25129;SDS011;13308;50.860;13.664;2023-02-12T19:14:50;27.58;;;13.98;;
25129;SDS011;13308;50.860;13.664;2023-02-12T19:17:15;15.13;;;7.78;;
25129;SDS011;13308;50.860;13.664;2023-02-12T19:19:41;14.55;;;10.23;;
25129;SDS011;13308;50.860;13.664;2023-02-12T19:22:06;13.80;;;7.70;;
25129;SDS011;13308;50.860;13.664;2023-02-12T19:24:32;11.88;;;7.05;;
25129;SDS011;13308;50.860;13.664;2023-02-12T19:26:57;14.95;;;9.57;;
25129;SDS011;13308;50.860;13.664;2023-02-12T19:29:23;10.60;;;7.45;;
